Cedar Springs

*Note: All times are displayed in the local standard time of the station location.
**Rain - Equipment is designed to accurately record liquid precipitation; under conditions when precipitation is not in liquid form, the data displayed may not properly reflect rainfall values.

Date Max Temp
(°C)
Min Temp
(°C)
Avg Temp
(°C)
Rain (mm) Avg RH (%) Solar Rad (kJ/m2)
Mon, Jul 16, 2018 31.1 23.2 26.5 0.0 92.6 12940.7
Sun, Jul 15, 2018 31.5 21.3 26.5 0.0 87.0 16781.1
Sat, Jul 14, 2018 28.5 23.3 25.3 0.0 92.0 9770.5
Fri, Jul 13, 2018 31.2 19.2 25.0 0.0 80.8 15355.8
Thu, Jul 12, 2018 29.1 13.9 22.0 0.0 76.7 15450.4
Wed, Jul 11, 2018 27.9 15.0 21.7 0.0 72.3 14327.6
Tue, Jul 10, 2018 30.2 18.5 24.7 0.0 63.1 15603.9
DateTime Avg Temp (°C) Rain (mm) RH (%) Solar Rad (kJ/m2)
Tue, Jul 17, 2018 04:00 21.8 0.0 97.0 0.0
Tue, Jul 17, 2018 03:00 22.7 0.0 97.0 0.0
Tue, Jul 17, 2018 02:00 23.0 0.0 96.0 0.0
Tue, Jul 17, 2018 01:00 23.0 0.0 95.0 0.0
Tue, Jul 17, 2018 00:00 23.3 0.0 93.3 0.0
Mon, Jul 16, 2018 23:00 24.1 0.0 89.5 0.0
Mon, Jul 16, 2018 22:00 25.0 0.0 84.8 0.6
Mon, Jul 16, 2018 21:00 26.5 0.0 78.3 93.6
Mon, Jul 16, 2018 20:00 27.1 0.0 78.5 229.0
Mon, Jul 16, 2018 19:00 27.6 0.0 87.8 361.8
Mon, Jul 16, 2018 18:00 28.4 0.0 87.0 695.9
Mon, Jul 16, 2018 17:00 29.2 0.0 83.8 881.6
Mon, Jul 16, 2018 16:00 30.3 0.0 82.5 1462.1
Mon, Jul 16, 2018 15:00 30.9 0.0 83.8 1889.6
Mon, Jul 16, 2018 14:00 29.1 0.0 89.5 1927.9
Mon, Jul 16, 2018 13:00 28.0 0.0 92.5 1558.5
Mon, Jul 16, 2018 12:00 27.3 0.0 95.5 1296.3
Mon, Jul 16, 2018 11:00 26.8 0.0 97.8 1064.0
Mon, Jul 16, 2018 10:00 25.9 0.0 99.3 596.1
Mon, Jul 16, 2018 09:00 26.0 0.0 100.0 447.1
Mon, Jul 16, 2018 08:00 26.1 0.0 100.0 376.9
Mon, Jul 16, 2018 07:00 24.8 0.0 100.0 59.7
Mon, Jul 16, 2018 06:00 24.8 0.0 100.0 0.0
Mon, Jul 16, 2018 05:00 25.1 0.0 100.0 0.0
Mon, Jul 16, 2018 04:00 24.9 0.0 100.0 0.0
Mon, Jul 16, 2018 03:00 24.7 0.0 100.0 0.0
Mon, Jul 16, 2018 02:00 25.1 0.0 99.8 0.0
Mon, Jul 16, 2018 01:00 25.2 0.0 98.5 0.0
Mon, Jul 16, 2018 00:00 25.4 0.0 96.8 0.0
Sun, Jul 15, 2018 23:00 25.6 0.0 94.0 0.0
Sun, Jul 15, 2018 22:00 26.0 0.0 90.5 0.9
Sun, Jul 15, 2018 21:00 26.7 0.0 87.3 68.0
Sun, Jul 15, 2018 20:00 28.2 0.0 83.0 379.6
Sun, Jul 15, 2018 19:00 29.9 0.0 78.3 755.4
Sun, Jul 15, 2018 18:00 30.5 0.0 77.5 1177.0
Sun, Jul 15, 2018 17:00 30.9 0.0 75.3 1528.3
Sun, Jul 15, 2018 16:00 31.3 0.0 75.0 1814.2
Sun, Jul 15, 2018 15:00 30.6 0.0 76.5 1973.7
Sun, Jul 15, 2018 14:00 30.3 0.0 77.8 1977.8
Sun, Jul 15, 2018 13:00 29.2 0.0 81.8 1925.6
Sun, Jul 15, 2018 12:00 28.9 0.0 81.8 1715.6
Sun, Jul 15, 2018 11:00 29.0 0.0 80.5 1411.2
Sun, Jul 15, 2018 10:00 28.2 0.0 84.5 1024.8
Sun, Jul 15, 2018 09:00 26.4 0.0 92.0 674.0
Sun, Jul 15, 2018 08:00 23.6 0.0 96.5 300.0
Sun, Jul 15, 2018 07:00 21.8 0.0 97.5 55.0
Sun, Jul 15, 2018 06:00 22.0 0.0 97.0 0.0
Sun, Jul 15, 2018 05:00 21.5 0.0 96.3 0.0


asterix Register now to access more data! asterix